createdAt,value
2023-04-28T00:05:20.868Z,101420.29
2023-04-28T00:10:46.175Z,101422.92
2023-04-28T00:16:14.174Z,101422.92
2023-04-28T00:21:39.951Z,101426.37
2023-04-28T00:27:04.978Z,101424.86
2023-04-28T00:32:29.650Z,101427.56
2023-04-28T00:37:54.952Z,101425.86
2023-04-28T00:43:19.629Z,101419.72
2023-04-28T00:48:44.574Z,101428.53
2023-04-28T00:54:08.691Z,101421.55
2023-04-28T00:59:33.366Z,101428.69
2023-04-28T01:05:01.213Z,101424.22
2023-04-28T01:10:25.654Z,101419.98
2023-04-28T01:15:49.408Z,101422.70
2023-04-28T01:21:14.103Z,101415.91
2023-04-28T01:26:38.189Z,101418.55
2023-04-28T01:32:03.062Z,101420.37
2023-04-28T01:37:27.959Z,101420.52
2023-04-28T01:42:52.354Z,101420.64
2023-04-28T01:48:16.150Z,101421.42
2023-04-28T01:53:40.718Z,101413.48
2023-04-28T01:59:05.375Z,101417.25
2023-04-28T02:04:29.435Z,101420.13
2023-04-28T02:09:53.579Z,101419.50
2023-04-28T02:15:17.326Z,101415.27
2023-04-28T02:20:42.158Z,101417.81
2023-04-28T02:26:07.722Z,101416.88
2023-04-28T02:31:33.437Z,101422.13
2023-04-28T02:36:58.448Z,101426.30
2023-04-28T02:42:22.242Z,101419.13
2023-04-28T02:47:46.937Z,101425.29
2023-04-28T02:53:10.803Z,101420.11
2023-04-28T02:58:36.036Z,101425.29
2023-04-28T03:04:01.526Z,101423.61
2023-04-28T03:09:26.664Z,101428.06
2023-04-28T03:14:51.058Z,101423.79
2023-04-28T03:20:16.213Z,101417.66
2023-04-28T03:25:41.113Z,101417.52
2023-04-28T03:31:04.605Z,101412.48
2023-04-28T03:36:29.076Z,101427.31
2023-04-28T03:41:54.097Z,101418.31
2023-04-28T03:47:19.056Z,101428.73
2023-04-28T03:52:43.961Z,101428.00
2023-04-28T03:58:08.378Z,101426.84
2023-04-28T04:03:33.480Z,101430.14
2023-04-28T04:08:57.646Z,101437.03
2023-04-28T04:14:22.552Z,101437.51
2023-04-28T04:19:46.987Z,101438.31
2023-04-28T04:25:10.712Z,101438.38
2023-04-28T04:30:34.510Z,101451.09
2023-04-28T04:35:58.716Z,101448.59
2023-04-28T04:41:23.432Z,101453.70
2023-04-28T04:46:48.193Z,101457.14
2023-04-28T04:52:11.728Z,101458.65
2023-04-28T04:57:36.450Z,101456.69
2023-04-28T05:03:01.280Z,101460.44
2023-04-28T05:08:26.519Z,101467.09
2023-04-28T05:13:51.976Z,101460.34
2023-04-28T05:19:16.620Z,101460.77
2023-04-28T05:24:41.571Z,101456.08
2023-04-28T05:30:06.587Z,101464.36
2023-04-28T05:35:32.104Z,101467.78
2023-04-28T05:40:56.622Z,101462.16
2023-04-28T05:46:30.127Z,101459.34
2023-04-28T05:51:48.521Z,101453.71
2023-04-28T05:57:14.757Z,101451.64
2023-04-28T06:02:39.675Z,101447.60
2023-04-28T06:08:04.891Z,101452.45
2023-04-28T06:13:28.925Z,101455.15
2023-04-28T06:18:53.623Z,101455.44
2023-04-28T06:24:19.134Z,101457.42
2023-04-28T06:29:43.020Z,101462.86
2023-04-28T06:35:07.879Z,101462.39
2023-04-28T06:40:32.919Z,101455.25
2023-04-28T06:45:58.011Z,101453.72
2023-04-28T06:51:22.664Z,101458.53
2023-04-28T06:56:47.047Z,101450.70
2023-04-28T07:02:12.141Z,101447.03
2023-04-28T07:07:36.412Z,101445.64
2023-04-28T07:13:01.280Z,101439.08
2023-04-28T07:18:25.899Z,101439.12
2023-04-28T07:23:50.004Z,101430.27
2023-04-28T07:29:16.247Z,101423.73
2023-04-28T07:34:40.985Z,101413.14
2023-04-28T07:40:05.299Z,101403.46
2023-04-28T07:45:29.282Z,101403.39
2023-04-28T07:50:52.452Z,101400.09
2023-04-28T07:56:17.281Z,101394.92
2023-04-28T08:01:42.000Z,101390.28
2023-04-28T08:07:06.688Z,101394.28
2023-04-28T08:12:31.135Z,101377.25
2023-04-28T08:17:55.752Z,101381.45
2023-04-28T08:23:20.901Z,101373.59
2023-04-28T08:28:45.455Z,101369.61
2023-04-28T08:34:10.172Z,101365.10
2023-04-28T08:39:35.661Z,101364.26
2023-04-28T08:45:00.875Z,101356.66
2023-04-28T08:50:29.086Z,101355.06
2023-04-28T08:55:56.919Z,101358.86
2023-04-28T09:01:24.106Z,101346.20
2023-04-28T09:06:51.468Z,101343.83
2023-04-28T09:12:18.316Z,101337.45
2023-04-28T09:17:55.856Z,101334.94
2023-04-28T09:23:37.783Z,101334.43
2023-04-28T09:29:04.017Z,101325.58
2023-04-28T09:34:29.042Z,101320.80
2023-04-28T09:39:54.484Z,101313.53
2023-04-28T09:45:21.714Z,101315.06
2023-04-28T09:50:47.403Z,101318.13
2023-04-28T09:56:14.377Z,101312.18
2023-04-28T10:01:41.044Z,101303.85
2023-04-28T10:07:05.019Z,101302.64
2023-04-28T10:12:30.178Z,101290.16
2023-04-28T10:17:55.553Z,101279.64
2023-04-28T10:29:20.262Z,101264.48
2023-04-28T10:34:44.887Z,101259.05
2023-04-28T10:40:45.974Z,101259.89
2023-04-28T10:46:09.206Z,101254.09
2023-04-28T10:51:38.407Z,101248.23
2023-04-28T10:57:27.366Z,101248.28
2023-04-28T11:03:02.561Z,101231.20
2023-04-28T11:08:43.375Z,101229.14
2023-04-28T11:14:26.145Z,101228.33
2023-04-28T11:19:58.541Z,101228.48
2023-04-28T11:25:24.162Z,101221.88
2023-04-28T11:30:52.586Z,101220.48
2023-04-28T11:36:19.189Z,101213.98
2023-04-28T11:41:51.455Z,101209.36
2023-04-28T11:47:20.139Z,101205.23
2023-04-28T11:52:47.692Z,101192.75
2023-04-28T11:58:31.430Z,101190.77
2023-04-28T12:04:05.830Z,101193.34
2023-04-28T12:09:38.494Z,101202.77
2023-04-28T12:15:20.516Z,101187.95
2023-04-28T12:20:58.230Z,101184.45
2023-04-28T12:26:23.177Z,101185.37
2023-04-28T12:31:58.076Z,101175.73
2023-04-28T12:37:22.906Z,101167.80
2023-04-28T12:42:45.910Z,101149.72
2023-04-28T12:48:11.266Z,101136.25
2023-04-28T12:53:36.071Z,101137.24
2023-04-28T12:58:59.150Z,101138.66
2023-04-28T13:04:21.800Z,101138.89
2023-04-28T13:09:44.923Z,101127.05
2023-04-28T13:15:09.284Z,101122.52
2023-04-28T13:20:32.525Z,101116.78
2023-04-28T13:25:57.900Z,101103.86
2023-04-28T13:31:22.351Z,101095.53
2023-04-28T13:36:49.611Z,101093.73
2023-04-28T13:42:13.644Z,101097.16
2023-04-28T13:47:36.173Z,101080.41
2023-04-28T13:52:59.068Z,101072.92
2023-04-28T13:58:23.643Z,101068.67
2023-04-28T14:03:46.173Z,101062.35
2023-04-28T14:09:10.891Z,101049.84
2023-04-28T14:14:36.435Z,101048.54
2023-04-28T14:20:00.223Z,101039.44
2023-04-28T14:25:25.039Z,101041.06
2023-04-28T14:30:50.492Z,101028.14
2023-04-28T14:36:14.541Z,101020.91
2023-04-28T14:41:40.298Z,101013.95
2023-04-28T14:47:05.384Z,101006.27
2023-04-28T14:52:30.826Z,101006.94
2023-04-28T14:57:55.143Z,101000.04
2023-04-28T15:03:20.783Z,100997.22
2023-04-28T15:08:46.304Z,100994.31
2023-04-28T15:14:10.654Z,100998.87
2023-04-28T15:19:35.471Z,100981.81
2023-04-28T15:24:59.779Z,100972.75
2023-04-28T15:30:24.185Z,100977.62
2023-04-28T15:35:49.281Z,100971.91
2023-04-28T15:41:14.014Z,100969.73
2023-04-28T15:46:38.747Z,100961.70
2023-04-28T15:52:03.745Z,100960.99
2023-04-28T15:57:29.776Z,100955.44
2023-04-28T16:02:54.429Z,100949.37
2023-04-28T16:08:19.713Z,100948.23
2023-04-28T16:13:45.079Z,100944.27
2023-04-28T16:19:10.465Z,100938.59
2023-04-28T16:24:35.854Z,100922.23
2023-04-28T16:29:59.807Z,100923.11
2023-04-28T16:35:24.464Z,100926.70
2023-04-28T16:40:49.185Z,100922.98
2023-04-28T16:46:14.020Z,100912.42
2023-04-28T16:51:41.274Z,100896.43
2023-04-28T16:57:05.798Z,100898.16
2023-04-28T17:02:30.214Z,100888.30
2023-04-28T17:07:55.267Z,100888.98
2023-04-28T17:13:20.204Z,100887.41
2023-04-28T17:18:45.441Z,100890.21
2023-04-28T17:24:09.568Z,100882.45
2023-04-28T17:29:34.268Z,100880.83
2023-04-28T17:34:59.033Z,100874.64
2023-04-28T17:40:28.167Z,100882.73
2023-04-28T17:45:54.267Z,100878.20
2023-04-28T17:51:19.217Z,100874.00
2023-04-28T17:56:44.126Z,100881.38
2023-04-28T18:02:08.587Z,100886.33
2023-04-28T18:07:35.436Z,100883.77
2023-04-28T18:13:00.758Z,100881.42
2023-04-28T18:18:25.837Z,100880.84
2023-04-28T18:23:50.735Z,100876.73
2023-04-28T18:29:14.236Z,100882.59
2023-04-28T18:34:38.944Z,100891.91
2023-04-28T18:40:04.756Z,100890.13
2023-04-28T18:45:29.622Z,100883.78
2023-04-28T18:50:54.235Z,100890.21
2023-04-28T18:56:19.248Z,100893.45
2023-04-28T19:01:44.599Z,100885.41
2023-04-28T19:07:09.079Z,100893.12
2023-04-28T19:12:32.829Z,100886.56
2023-04-28T19:17:57.258Z,100884.49
2023-04-28T19:23:22.622Z,100880.72
2023-04-28T19:28:46.927Z,100885.70
2023-04-28T19:34:12.307Z,100882.41
2023-04-28T19:39:36.703Z,100887.31
2023-04-28T19:45:04.874Z,100886.77
2023-04-28T19:50:29.778Z,100889.59
2023-04-28T19:55:53.510Z,100881.69
2023-04-28T20:01:19.528Z,100887.28
2023-04-28T20:06:43.904Z,100890.19
2023-04-28T20:12:08.362Z,100889.11
2023-04-28T20:17:33.666Z,100895.22
2023-04-28T20:22:56.334Z,100883.29
2023-04-28T20:28:19.657Z,100883.40
2023-04-28T20:33:43.718Z,100877.47
2023-04-28T20:39:10.089Z,100881.23
2023-04-28T20:44:35.915Z,100879.41
2023-04-28T20:50:00.656Z,100876.45
2023-04-28T20:55:25.373Z,100874.45
2023-04-28T21:00:50.090Z,100873.26
2023-04-28T21:06:14.771Z,100872.96
2023-04-28T21:11:39.204Z,100859.63
2023-04-28T21:17:04.044Z,100860.81
2023-04-28T21:22:28.939Z,100855.67
2023-04-28T21:27:53.422Z,100845.69
2023-04-28T21:33:17.758Z,100851.01
2023-04-28T21:38:42.274Z,100839.41
2023-04-28T21:44:06.310Z,100833.71
2023-04-28T21:49:30.964Z,100833.36
2023-04-28T21:54:55.770Z,100827.01
2023-04-28T22:00:22.436Z,100825.12
2023-04-28T22:05:47.478Z,100812.12
2023-04-28T22:11:12.661Z,100803.34
2023-04-28T22:16:37.511Z,100802.98
2023-04-28T22:22:02.538Z,100798.98
2023-04-28T22:27:28.074Z,100786.45
2023-04-28T22:32:54.346Z,100780.81
2023-04-28T22:38:18.674Z,100777.95
2023-04-28T22:43:43.310Z,100775.78
2023-04-28T22:49:08.245Z,100773.66
2023-04-28T22:54:33.388Z,100759.75
2023-04-28T22:59:58.530Z,100762.84
2023-04-28T23:05:22.526Z,100754.80
2023-04-28T23:10:46.737Z,100749.36
2023-04-28T23:16:11.650Z,100745.49
2023-04-28T23:21:36.139Z,100744.41
2023-04-28T23:27:01.172Z,100738.09
2023-04-28T23:32:25.621Z,100724.68
2023-04-28T23:37:49.674Z,100722.00
2023-04-28T23:43:14.778Z,100715.16
2023-04-28T23:48:39.007Z,100712.47
2023-04-28T23:54:03.792Z,100703.80
2023-04-28T23:59:29.139Z,100697.03
